createdAt,value
2022-10-01T00:00:21.756Z,82.20
2022-10-01T00:04:24.609Z,82.20
2022-10-01T00:08:28.797Z,82.20
2022-10-01T00:12:31.541Z,82.10
2022-10-01T00:16:34.626Z,82.00
2022-10-01T00:20:43.613Z,82.00
2022-10-01T00:24:47.328Z,82.00
2022-10-01T00:28:58.345Z,81.90
2022-10-01T00:33:01.165Z,82.10
2022-10-01T00:37:04.726Z,81.90
2022-10-01T00:41:08.782Z,82.10
2022-10-01T00:45:12.773Z,82.10
2022-10-01T00:49:21.787Z,82.20
2022-10-01T00:53:25.901Z,82.20
2022-10-01T00:57:29.189Z,82.10
2022-10-01T01:01:33.647Z,82.10
2022-10-01T01:05:36.974Z,82.10
2022-10-01T01:09:49.408Z,82.10
2022-10-01T01:14:06.074Z,82.30
2022-10-01T01:18:52.279Z,82.30
2022-10-01T01:23:16.339Z,82.60
2022-10-01T01:27:45.333Z,82.50
2022-10-01T01:31:49.153Z,82.40
2022-10-01T01:35:56.786Z,82.30
2022-10-01T01:40:02.070Z,82.30
2022-10-01T01:44:09.904Z,82.20
2022-10-01T01:48:14.068Z,82.20
2022-10-01T01:52:18.048Z,82.20
2022-10-01T01:56:21.207Z,82.30
2022-10-01T02:00:24.024Z,82.40
2022-10-01T02:04:33.959Z,82.50
2022-10-01T02:08:41.408Z,82.60
2022-10-01T02:13:13.181Z,82.50
2022-10-01T02:17:28.125Z,82.50
2022-10-01T02:21:33.976Z,82.60
2022-10-01T02:25:48.371Z,82.60
2022-10-01T02:29:52.450Z,82.60
2022-10-01T02:33:58.719Z,82.40
2022-10-01T02:38:05.488Z,82.50
2022-10-01T02:42:10.802Z,82.40
2022-10-01T02:46:21.603Z,82.10
2022-10-01T02:50:31.381Z,82.70
2022-10-01T02:54:39.883Z,82.90
2022-10-01T02:58:42.614Z,82.90
2022-10-01T03:02:45.421Z,82.70
2022-10-01T03:06:48.442Z,82.50
2022-10-01T03:10:51.110Z,82.40
2022-10-01T03:14:54.133Z,82.30
2022-10-01T03:18:57.116Z,82.30
2022-10-01T03:22:59.818Z,82.40
2022-10-01T03:27:02.548Z,82.40
2022-10-01T03:31:07.129Z,82.30
2022-10-01T03:35:10.493Z,82.40
2022-10-01T03:39:13.773Z,82.50
2022-10-01T03:43:16.531Z,82.60
2022-10-01T03:47:19.454Z,82.70
2022-10-01T03:51:22.149Z,82.60
2022-10-01T03:55:25.417Z,82.50
2022-10-01T03:59:28.956Z,82.50
2022-10-01T04:03:32.052Z,82.50
2022-10-01T04:07:34.775Z,82.40
2022-10-01T04:11:39.742Z,82.50
2022-10-01T04:15:42.512Z,82.50
2022-10-01T04:19:45.524Z,82.40
2022-10-01T04:23:49.897Z,82.40
2022-10-01T04:28:10.574Z,82.40
2022-10-01T04:32:18.513Z,82.40
2022-10-01T04:36:21.694Z,82.40
2022-10-01T04:40:24.590Z,82.30
2022-10-01T04:44:27.518Z,82.30
2022-10-01T04:48:30.244Z,82.20
2022-10-01T04:52:33.123Z,82.30
2022-10-01T04:56:36.124Z,82.10
2022-10-01T05:00:38.924Z,82.00
2022-10-01T05:04:41.647Z,82.10
2022-10-01T05:08:44.405Z,82.10
2022-10-01T05:12:48.181Z,82.20
2022-10-01T05:16:51.017Z,82.20
2022-10-01T05:20:54.364Z,82.10
2022-10-01T05:25:00.353Z,82.00
2022-10-01T05:29:03.587Z,81.90
2022-10-01T05:33:06.611Z,81.90
2022-10-01T05:37:09.861Z,81.90
2022-10-01T05:41:17.475Z,82.00
2022-10-01T05:45:43.283Z,82.10
2022-10-01T05:49:46.335Z,82.20
2022-10-01T05:53:50.540Z,82.20
2022-10-01T05:58:04.885Z,82.20
2022-10-01T06:02:10.112Z,82.10
2022-10-01T06:06:13.055Z,82.10
2022-10-01T06:10:16.722Z,82.10
2022-10-01T06:14:19.482Z,82.00
2022-10-01T06:18:22.297Z,82.00
2022-10-01T06:22:25.445Z,82.00
2022-10-01T06:26:28.752Z,82.00
2022-10-01T06:30:34.065Z,82.00
2022-10-01T06:34:37.111Z,82.00
2022-10-01T06:38:40.058Z,82.00
2022-10-01T06:42:49.794Z,82.00
2022-10-01T06:46:54.939Z,82.20
2022-10-01T06:50:58.826Z,82.10
2022-10-01T06:55:01.751Z,82.20
2022-10-01T06:59:04.713Z,82.20
2022-10-01T07:03:12.505Z,82.20
2022-10-01T07:07:15.352Z,82.40
2022-10-01T07:11:19.161Z,82.30
2022-10-01T07:15:22.982Z,82.30
2022-10-01T07:19:25.673Z,82.20
2022-10-01T07:23:28.569Z,82.00
2022-10-01T07:27:31.387Z,82.00
2022-10-01T07:31:34.514Z,82.10
2022-10-01T07:35:38.401Z,81.90
2022-10-01T07:39:41.234Z,81.50
2022-10-01T07:43:46.719Z,81.00
2022-10-01T07:48:08.146Z,80.70
2022-10-01T07:52:13.426Z,80.10
2022-10-01T07:56:16.539Z,80.00
2022-10-01T08:00:19.710Z,79.60
2022-10-01T08:04:41.458Z,79.30
2022-10-01T08:08:45.085Z,79.00
2022-10-01T08:12:47.745Z,79.00
2022-10-01T08:16:50.687Z,78.70
2022-10-01T08:20:53.455Z,78.30
2022-10-01T08:24:56.369Z,77.80
2022-10-01T08:28:59.496Z,77.30
2022-10-01T08:33:02.489Z,77.20
2022-10-01T08:37:05.965Z,76.80
2022-10-01T08:41:44.925Z,76.80
2022-10-01T08:45:53.013Z,76.30
2022-10-01T08:50:00.467Z,74.40
2022-10-01T08:54:34.786Z,73.30
2022-10-01T08:58:48.542Z,73.70
2022-10-01T09:02:52.975Z,73.10
2022-10-01T09:07:12.324Z,71.90
2022-10-01T09:11:15.645Z,71.50
2022-10-01T09:15:22.393Z,70.50
2022-10-01T09:19:55.034Z,70.30
2022-10-01T09:24:03.207Z,68.70
2022-10-01T09:28:16.162Z,67.70
2022-10-01T09:32:24.699Z,66.50
2022-10-01T09:37:06.399Z,65.80
2022-10-01T09:41:10.829Z,64.80
2022-10-01T09:45:19.190Z,63.00
2022-10-01T09:49:33.959Z,62.90
2022-10-01T09:53:46.191Z,64.00
2022-10-01T09:58:27.936Z,64.00
2022-10-01T10:02:34.327Z,64.30
2022-10-01T10:06:38.923Z,63.70
2022-10-01T10:10:51.746Z,63.70
2022-10-01T10:14:59.177Z,61.90
2022-10-01T10:19:06.711Z,62.50
2022-10-01T10:23:18.846Z,60.90
2022-10-01T10:27:27.083Z,60.50
2022-10-01T10:31:46.734Z,62.70
2022-10-01T10:36:00.943Z,62.00
2022-10-01T10:40:08.415Z,61.50
2022-10-01T10:44:19.738Z,60.50
2022-10-01T10:48:29.168Z,60.50
2022-10-01T10:52:37.207Z,61.10
2022-10-01T10:56:40.859Z,61.70
2022-10-01T11:00:50.444Z,61.70
2022-10-01T11:04:55.857Z,62.10
2022-10-01T11:09:07.271Z,61.80
2022-10-01T11:13:22.022Z,61.30
2022-10-01T11:17:34.288Z,60.40
2022-10-01T11:22:09.359Z,58.10
2022-10-01T11:26:34.151Z,59.90
2022-10-01T11:30:42.671Z,60.60
2022-10-01T11:34:55.901Z,58.70
2022-10-01T11:39:03.952Z,57.90
2022-10-01T11:43:25.518Z,58.80
2022-10-01T11:47:43.989Z,58.90
2022-10-01T11:51:57.535Z,58.70
2022-10-01T11:56:42.287Z,57.30
2022-10-01T12:00:57.117Z,56.60
2022-10-01T12:05:07.638Z,57.00
2022-10-01T12:09:22.253Z,57.30
2022-10-01T12:14:05.383Z,56.70
2022-10-01T12:18:46.158Z,56.30
2022-10-01T12:22:51.059Z,56.40
2022-10-01T12:27:35.622Z,57.20
2022-10-01T12:32:11.798Z,56.50
2022-10-01T12:36:55.733Z,53.30
2022-10-01T12:41:35.182Z,53.40
2022-10-01T12:45:56.228Z,52.80
2022-10-01T12:50:24.629Z,53.50
2022-10-01T12:55:04.913Z,53.30
2022-10-01T12:59:30.142Z,53.60
2022-10-01T13:04:05.583Z,53.20
2022-10-01T13:08:29.793Z,53.80
2022-10-01T13:12:50.036Z,52.70
2022-10-01T13:17:00.499Z,51.90
2022-10-01T13:25:59.458Z,51.40
2022-10-01T13:30:07.876Z,51.60
2022-10-01T13:38:59.551Z,52.10
2022-10-01T13:43:13.282Z,51.50
2022-10-01T13:47:19.399Z,51.20
2022-10-01T13:51:33.641Z,51.00
2022-10-01T13:55:42.576Z,51.90
2022-10-01T13:59:45.958Z,52.20
2022-10-01T14:04:06.919Z,51.10
2022-10-01T14:08:22.405Z,50.00
2022-10-01T14:12:53.750Z,51.20
2022-10-01T14:16:59.889Z,51.20
2022-10-01T14:21:49.214Z,51.00
2022-10-01T14:26:05.554Z,52.30
2022-10-01T14:30:18.745Z,52.30
2022-10-01T14:34:38.789Z,52.00
2022-10-01T14:38:42.333Z,51.30
2022-10-01T14:43:16.376Z,51.70
2022-10-01T14:47:24.668Z,52.20
2022-10-01T14:51:30.373Z,51.10
2022-10-01T14:55:35.890Z,52.10
2022-10-01T14:59:41.234Z,50.60
2022-10-01T15:03:45.629Z,50.70
2022-10-01T15:07:49.157Z,51.30
2022-10-01T15:11:52.663Z,50.60
2022-10-01T15:15:56.544Z,51.30
2022-10-01T15:20:01.263Z,51.20
2022-10-01T15:24:12.041Z,50.90
2022-10-01T15:28:24.260Z,48.20
2022-10-01T15:32:30.405Z,45.60
2022-10-01T15:36:35.757Z,46.80
2022-10-01T15:40:42.747Z,47.20
2022-10-01T15:44:50.637Z,47.50
2022-10-01T15:49:24.960Z,48.40
2022-10-01T15:53:29.580Z,49.20
2022-10-01T15:57:33.690Z,49.20
2022-10-01T16:01:41.249Z,50.60
2022-10-01T16:05:49.132Z,50.30
2022-10-01T16:09:58.395Z,50.60
2022-10-01T16:14:31.611Z,51.60
2022-10-01T16:18:38.003Z,51.60
2022-10-01T16:22:42.360Z,51.60
2022-10-01T16:26:48.163Z,51.80
2022-10-01T16:30:51.704Z,51.50
2022-10-01T16:35:18.089Z,51.60
2022-10-01T16:39:24.526Z,52.10
2022-10-01T16:43:27.933Z,52.40
2022-10-01T16:47:31.274Z,53.70
2022-10-01T16:51:34.727Z,53.80
2022-10-01T16:55:38.562Z,54.50
2022-10-01T16:59:42.246Z,55.20
2022-10-01T17:03:48.249Z,55.80
2022-10-01T17:07:57.695Z,56.80
2022-10-01T17:12:02.102Z,57.10
2022-10-01T17:16:06.697Z,58.20
2022-10-01T17:20:10.228Z,58.80
2022-10-01T17:24:14.511Z,59.10
2022-10-01T17:28:20.262Z,60.10
2022-10-01T17:32:23.657Z,60.50
2022-10-01T17:36:26.867Z,60.90
2022-10-01T17:40:30.245Z,61.70
2022-10-01T17:44:34.983Z,62.10
2022-10-01T17:48:38.076Z,62.60
2022-10-01T17:52:41.557Z,63.30
2022-10-01T17:56:44.686Z,63.70
2022-10-01T18:00:48.885Z,63.90
2022-10-01T18:04:51.583Z,64.40
2022-10-01T18:08:56.261Z,64.60
2022-10-01T18:13:00.422Z,64.70
2022-10-01T18:17:03.188Z,64.60
2022-10-01T18:21:08.832Z,64.80
2022-10-01T18:25:13.915Z,65.20
2022-10-01T18:29:22.968Z,65.20
2022-10-01T18:33:25.974Z,65.80
2022-10-01T18:37:51.380Z,65.60
2022-10-01T18:41:54.352Z,65.60
2022-10-01T18:46:18.666Z,65.60
2022-10-01T18:50:59.828Z,65.80
2022-10-01T18:55:20.827Z,65.30
2022-10-01T18:59:47.588Z,65.60
2022-10-01T19:04:09.070Z,65.10
2022-10-01T19:08:36.624Z,64.90
2022-10-01T19:13:11.937Z,64.80
2022-10-01T19:17:38.544Z,65.00
2022-10-01T19:21:41.357Z,64.80
2022-10-01T19:25:57.973Z,65.00
2022-10-01T19:30:04.797Z,65.30
2022-10-01T19:34:22.785Z,64.70
2022-10-01T19:38:32.903Z,65.80
2022-10-01T19:42:40.458Z,65.70
2022-10-01T19:46:45.873Z,66.10
2022-10-01T19:51:00.137Z,66.30
2022-10-01T19:55:06.545Z,66.40
2022-10-01T19:59:14.651Z,66.20
2022-10-01T20:03:39.733Z,66.60
2022-10-01T20:08:01.775Z,65.70
2022-10-01T20:12:25.490Z,65.90
2022-10-01T20:16:52.022Z,65.70
2022-10-01T20:21:01.086Z,65.60
2022-10-01T20:25:27.449Z,65.40
2022-10-01T20:29:55.973Z,66.20
2022-10-01T20:34:11.180Z,66.00
2022-10-01T20:38:20.716Z,66.30
2022-10-01T20:42:46.823Z,66.80
2022-10-01T20:46:59.424Z,66.50
2022-10-01T20:51:14.858Z,66.50
2022-10-01T20:55:29.222Z,66.30
2022-10-01T20:59:43.183Z,66.90
2022-10-01T21:04:21.338Z,67.50
2022-10-01T21:08:34.287Z,66.60
2022-10-01T21:12:42.917Z,67.50
2022-10-01T21:16:51.512Z,67.50
2022-10-01T21:21:19.351Z,67.70
2022-10-01T21:25:28.570Z,67.90
2022-10-01T21:30:04.547Z,68.20
2022-10-01T21:34:34.845Z,67.60
2022-10-01T21:38:48.992Z,68.00
2022-10-01T21:43:16.353Z,68.20
2022-10-01T21:47:30.040Z,67.80
2022-10-01T21:51:52.205Z,68.20
2022-10-01T21:56:03.542Z,68.40
2022-10-01T22:00:21.762Z,68.20
2022-10-01T22:04:32.811Z,68.00
2022-10-01T22:09:03.260Z,68.20
2022-10-01T22:13:17.853Z,68.10
2022-10-01T22:17:25.976Z,68.60
2022-10-01T22:21:37.358Z,68.40
2022-10-01T22:25:54.192Z,68.40
2022-10-01T22:30:09.693Z,68.40
2022-10-01T22:34:21.247Z,68.20
2022-10-01T22:38:36.380Z,68.50
2022-10-01T22:42:46.785Z,68.60
2022-10-01T22:47:17.285Z,68.60
2022-10-01T22:51:30.073Z,68.60
2022-10-01T22:55:54.588Z,68.60
2022-10-01T23:00:12.934Z,68.70
2022-10-01T23:05:00.018Z,68.80
2022-10-01T23:09:25.893Z,68.90
2022-10-01T23:13:37.844Z,69.10
2022-10-01T23:17:59.158Z,69.30
2022-10-01T23:22:24.918Z,69.70
2022-10-01T23:26:35.322Z,69.80
2022-10-01T23:31:03.667Z,69.90
2022-10-01T23:35:20.045Z,70.00
2022-10-01T23:39:28.557Z,69.90
2022-10-01T23:43:50.071Z,70.00
2022-10-01T23:48:01.727Z,70.00
2022-10-01T23:52:37.827Z,70.60
2022-10-01T23:56:49.876Z,71.10
